Welcome to our new website - Welkom op onze vernieuwde website - Bienvenue sur notre nouveau site web - Willkommen auf unserer neuen Website
Check our progress frequently. Prüfen Sie unsere Fortschritte regelmäßig. Consultez notre progression fréquemment. Komt u straks nog eens terug

Bezoek ook deze websites:

Template documentation
and downloads

And another site



Het weer levert geen direct gevaar op.    Er zijn geen waarschuwingen afgegeven.

METAR rapporten vliegvelden

   
EHDL - Deelen Rnlafb, Netherlands
Afstand tot: ZW 55 km
Gewijzigd: 07-03-2021 17:55
Bewolking  
Bewolking  
   Wind: NNW 13 km/h
Wind: NNW 13 km/h
Temperatuur: 4°C
Voelt als: 1°C
Dauwpunt: -3°C
Vochtigheid: 61%
Barometer: 1023 hPa
Bewolking: Bewolking
Zicht: meer dan 10 km
Bewolking: Bewolking 4500 ft
EHDL 071655Z AUTO 34007KT 300V010 9999 OVC045 04/M03 Q1023 BLU
EHLE - Lelystad, Netherlands
Afstand tot: W 64 km
Gewijzigd: 07-03-2021 17:55
Bewolking  
Bewolking  
   Wind: WNW 11.1 km/h
Wind: WNW 11.1 km/h
Temperatuur: 5°C
Voelt als: 2°C
Dauwpunt: -1°C
Vochtigheid: 66%
Barometer: 1023 hPa
Bewolking: Bewolking
Zicht: meer dan 10 km
Bewolking: Bewolking 4800 ft
EHLE 071655Z AUTO 30006KT 270V330 9999 OVC048 05/M01 Q1023 NOSIG
ETWM - Meppen, Germany
Afstand tot: ONO 69 km
Gewijzigd: 07-03-2021 17:20
  
  
   Wind: WNW 11.1 km/h
Wind: WNW 11.1 km/h
Temperatuur: 5°C
Voelt als: 2°C
Dauwpunt: -2°C
Vochtigheid: 61%
Barometer: 1022 hPa
ETWM 071620Z AUTO 29006KT //// // ////// 05/M02 Q1022 ///
EHGG - Groningen/Eelde, Netherlands
Afstand tot: N 79 km
Gewijzigd: 07-03-2021 17:55
Bewolking  
Bewolking  
   Wind: Westen 13 km/h
Wind: Westen 13 km/h
Temperatuur: 4°C
Voelt als: 1°C
Dauwpunt: 2°C
Vochtigheid: 87%
Barometer: 1022 hPa
Bewolking: Bewolking
Zicht: meer dan 10 km
Bewolking: Bewolking 1400 ft
EHGG 071655Z AUTO 28007KT 240V300 9999 OVC014 04/02 Q1022 BECMG BKN020
EDDG - Muenster/Osnabru, Germany
Afstand tot: OZO 90 km
Gewijzigd: 07-03-2021 17:50
Grotendeels bewolkt  
Grotendeels bewolkt  
   Wind: WNW 11.1 km/h
Wind: WNW 11.1 km/h
Temperatuur: 4°C
Voelt als: 1°C
Dauwpunt: -2°C
Vochtigheid: 65%
Barometer: 1022 hPa
Bewolking: Grotendeels bewolkt
Zicht: meer dan 10 km
Bewolking: Gedeeltelijk bewolkt 3500 ft,
Grotendeels bewolkt 4600 ft
EDDG 071650Z 30006KT 270V330 9999 SCT035 BKN046 04/M02 Q1022 NOSIG
EDLV - Niederrhein, Germany
Afstand tot: ZZW 92 km
Gewijzigd: 07-03-2021 17:50
Helder  
Helder  
   Wind: varieert 5.6 km/h
Wind: varieert 5.6 km/h
Temperatuur: 5°C
Voelt als: 4°C
Dauwpunt: -4°C
Vochtigheid: 53%
Barometer: 1023 hPa
Zicht: meer dan 10 km
Bewolking: Helder
EDLV 071650Z VRB03KT CAVOK 05/M04 Q1023

Script ontwikkeld door  Saratoga-weather.org Aangepast voor de template door  Weerstation Leuven

U vindt ons ook hier:

Het Weer Aktueel

European Weather Network

Weather Underground

Benelux Weer Netwerk

Apparatuur in gebruik:

Weerstation
Davis VP2

Weerprogramma
Meteobridge

Weercomputer
Meteobridge Pro+

Webleverancier
vip.nl

Davis VP2

Meteobridge

Meteobridge Pro+

vip.nl